createdAt,value
2022-12-25T00:01:22.518Z,11.97
2022-12-25T00:03:25.317Z,11.98
2022-12-25T00:05:28.020Z,11.97
2022-12-25T00:07:30.918Z,11.96
2022-12-25T00:09:33.696Z,11.94
2022-12-25T00:11:36.499Z,11.93
2022-12-25T00:13:39.330Z,11.89
2022-12-25T00:15:42.139Z,11.85
2022-12-25T00:17:44.795Z,11.83
2022-12-25T00:19:47.529Z,11.82
2022-12-25T00:21:50.250Z,11.79
2022-12-25T00:23:55.159Z,11.78
2022-12-25T00:25:58.016Z,11.78
2022-12-25T00:28:00.680Z,11.80
2022-12-25T00:30:04.326Z,11.81
2022-12-25T00:32:07.178Z,11.81
2022-12-25T00:34:09.825Z,11.81
2022-12-25T00:36:14.948Z,11.82
2022-12-25T00:38:17.739Z,11.84
2022-12-25T00:40:20.367Z,11.85
2022-12-25T00:42:23.115Z,11.90
2022-12-25T00:44:25.813Z,11.92
2022-12-25T00:46:28.518Z,11.91
2022-12-25T00:48:31.873Z,11.87
2022-12-25T00:50:37.110Z,11.86
2022-12-25T00:52:40.125Z,11.84
2022-12-25T00:54:42.819Z,11.84
2022-12-25T00:56:45.600Z,11.87
2022-12-25T00:58:48.270Z,11.89
2022-12-25T01:00:51.316Z,11.91
2022-12-25T01:02:54.051Z,11.93
2022-12-25T01:04:57.410Z,11.97
2022-12-25T01:07:00.123Z,11.97
2022-12-25T01:09:03.143Z,11.96
2022-12-25T01:11:07.358Z,11.94
2022-12-25T01:13:10.024Z,11.93
2022-12-25T01:15:13.452Z,11.90
2022-12-25T01:17:16.060Z,11.88
2022-12-25T01:19:19.067Z,11.88
2022-12-25T01:21:22.181Z,11.85
2022-12-25T01:23:24.927Z,11.81
2022-12-25T01:25:27.569Z,11.79
2022-12-25T01:27:30.594Z,11.79
2022-12-25T01:29:33.283Z,11.79
2022-12-25T01:31:36.068Z,11.74
2022-12-25T01:33:39.073Z,11.68
2022-12-25T01:35:41.854Z,11.64
2022-12-25T01:37:44.552Z,11.63
2022-12-25T01:39:47.728Z,11.64
2022-12-25T01:41:50.456Z,11.63
2022-12-25T01:44:02.562Z,11.61
2022-12-25T01:46:05.432Z,11.58
2022-12-25T01:48:12.993Z,11.55
2022-12-25T01:50:16.406Z,11.54
2022-12-25T01:52:24.470Z,11.53
2022-12-25T01:54:32.412Z,11.53
2022-12-25T01:56:37.544Z,11.54
2022-12-25T01:58:40.543Z,11.54
2022-12-25T02:00:43.542Z,11.54
2022-12-25T02:02:47.163Z,11.53
2022-12-25T02:04:54.758Z,11.52
2022-12-25T02:06:58.032Z,11.52
2022-12-25T02:09:01.039Z,11.53
2022-12-25T02:11:04.152Z,11.55
2022-12-25T02:13:07.273Z,11.57
2022-12-25T02:15:13.636Z,11.60
2022-12-25T02:17:23.283Z,11.63
2022-12-25T02:19:46.189Z,11.65
2022-12-25T02:22:05.559Z,11.65
2022-12-25T02:24:27.948Z,11.63
2022-12-25T02:26:50.044Z,11.59
2022-12-25T02:29:00.107Z,11.55
2022-12-25T02:31:09.747Z,11.52
2022-12-25T02:33:16.225Z,11.50
2022-12-25T02:35:27.791Z,11.50
2022-12-25T02:37:39.119Z,11.51
2022-12-25T02:39:55.041Z,11.54
2022-12-25T02:42:01.015Z,11.58
2022-12-25T02:44:09.427Z,11.61
2022-12-25T02:46:15.936Z,11.67
2022-12-25T02:48:22.423Z,11.71
2022-12-25T02:50:25.722Z,11.73
2022-12-25T02:52:30.549Z,11.76
2022-12-25T02:54:36.750Z,11.80
2022-12-25T02:56:41.373Z,11.82
2022-12-25T02:58:45.484Z,11.81
2022-12-25T03:00:51.939Z,11.82
2022-12-25T03:02:57.088Z,11.78
2022-12-25T03:05:04.473Z,11.79
2022-12-25T03:07:11.066Z,11.83
2022-12-25T03:09:21.573Z,11.85
2022-12-25T03:11:24.345Z,11.86
2022-12-25T03:13:32.222Z,11.87
2022-12-25T03:15:35.474Z,11.90
2022-12-25T03:17:38.227Z,11.92
2022-12-25T03:19:41.171Z,11.94
2022-12-25T03:21:44.186Z,11.98
2022-12-25T03:23:50.328Z,11.99
2022-12-25T03:25:52.947Z,12.00
2022-12-25T03:27:58.458Z,12.00
2022-12-25T03:30:01.418Z,12.01
2022-12-25T03:32:18.833Z,12.01
2022-12-25T03:34:33.728Z,12.04
2022-12-25T03:36:47.305Z,12.04
2022-12-25T03:39:02.351Z,12.05
2022-12-25T03:41:12.325Z,12.05
2022-12-25T03:43:23.773Z,12.08
2022-12-25T03:45:32.149Z,12.09
2022-12-25T03:47:38.951Z,12.09
2022-12-25T03:49:49.612Z,12.12
2022-12-25T03:51:57.524Z,12.13
2022-12-25T03:54:05.657Z,12.16
2022-12-25T03:56:09.087Z,12.20
2022-12-25T03:58:18.434Z,12.22
2022-12-25T04:00:21.274Z,12.23
2022-12-25T04:02:24.032Z,12.22
2022-12-25T04:04:26.934Z,12.22
2022-12-25T04:06:32.820Z,12.18
2022-12-25T04:08:35.558Z,12.11
2022-12-25T04:10:38.198Z,12.08
2022-12-25T04:12:40.853Z,12.07
2022-12-25T04:14:43.480Z,12.08
2022-12-25T04:16:46.149Z,12.06
2022-12-25T04:18:48.885Z,12.01
2022-12-25T04:20:51.579Z,11.99
2022-12-25T04:22:54.181Z,12.00
2022-12-25T04:24:56.781Z,11.99
2022-12-25T04:26:59.558Z,11.98
2022-12-25T04:29:02.220Z,11.96
2022-12-25T04:31:05.167Z,11.94
2022-12-25T04:33:07.874Z,11.93
2022-12-25T04:35:11.096Z,11.95
2022-12-25T04:37:13.869Z,11.98
2022-12-25T04:39:16.676Z,11.98
2022-12-25T04:41:19.382Z,11.98
2022-12-25T04:43:22.083Z,11.95
2022-12-25T04:45:24.759Z,11.92
2022-12-25T04:47:27.528Z,11.85
2022-12-25T04:49:30.218Z,11.77
2022-12-25T04:51:32.882Z,11.72
2022-12-25T04:53:35.553Z,11.72
2022-12-25T04:55:38.338Z,11.69
2022-12-25T04:57:41.058Z,11.63
2022-12-25T04:59:44.562Z,11.60
2022-12-25T05:01:47.350Z,11.60
2022-12-25T05:03:50.123Z,11.59
2022-12-25T05:05:52.832Z,11.58
2022-12-25T05:07:56.604Z,11.59
2022-12-25T05:09:59.407Z,11.60
2022-12-25T05:12:02.145Z,11.59
2022-12-25T05:14:04.911Z,11.57
2022-12-25T05:16:11.142Z,11.58
2022-12-25T05:18:13.974Z,11.56
2022-12-25T05:20:16.759Z,11.58
2022-12-25T05:22:19.427Z,11.54
2022-12-25T05:24:26.021Z,11.50
2022-12-25T05:26:28.653Z,11.49
2022-12-25T05:28:31.409Z,11.49
2022-12-25T05:30:34.384Z,11.50
2022-12-25T05:32:37.196Z,11.49
2022-12-25T05:34:40.052Z,11.49
2022-12-25T05:36:42.818Z,11.51
2022-12-25T05:38:47.307Z,11.56
2022-12-25T05:40:51.167Z,11.55
2022-12-25T05:42:53.881Z,11.49
2022-12-25T05:44:56.636Z,11.45
2022-12-25T05:46:59.431Z,11.41
2022-12-25T05:49:02.173Z,11.40
2022-12-25T05:51:06.705Z,11.37
2022-12-25T05:53:12.002Z,11.33
2022-12-25T05:55:15.023Z,11.29
2022-12-25T05:57:17.720Z,11.26
2022-12-25T05:59:20.435Z,11.27
2022-12-25T06:01:24.482Z,11.27
2022-12-25T06:03:27.748Z,11.30
2022-12-25T06:05:31.072Z,11.26
2022-12-25T06:07:33.763Z,11.24
2022-12-25T06:09:36.967Z,11.24
2022-12-25T06:11:40.425Z,11.28
2022-12-25T06:13:43.752Z,11.29
2022-12-25T06:15:46.555Z,11.31
2022-12-25T06:17:49.505Z,11.31
2022-12-25T06:19:52.662Z,11.31
2022-12-25T06:21:56.241Z,11.32
2022-12-25T06:24:01.024Z,11.31
2022-12-25T06:26:05.768Z,11.28
2022-12-25T06:28:08.697Z,11.25
2022-12-25T06:30:12.480Z,11.22
2022-12-25T06:32:15.438Z,11.18
2022-12-25T06:34:18.140Z,11.12
2022-12-25T06:36:22.789Z,11.09
2022-12-25T06:38:25.635Z,11.09
2022-12-25T06:40:28.486Z,11.08
2022-12-25T06:42:31.238Z,11.10
2022-12-25T06:44:33.853Z,11.14
2022-12-25T06:46:36.684Z,11.13
2022-12-25T06:48:40.776Z,11.11
2022-12-25T06:50:43.716Z,11.09
2022-12-25T06:52:46.414Z,11.04
2022-12-25T06:54:49.063Z,11.03
2022-12-25T06:56:51.715Z,11.00
2022-12-25T06:58:56.416Z,10.97
2022-12-25T07:00:59.351Z,10.88
2022-12-25T07:03:02.462Z,10.83
2022-12-25T07:05:06.666Z,10.82
2022-12-25T07:07:11.080Z,10.80
2022-12-25T07:09:13.894Z,10.79
2022-12-25T07:11:17.148Z,10.81
2022-12-25T07:13:19.973Z,10.83
2022-12-25T07:15:22.595Z,10.86
2022-12-25T07:17:25.290Z,10.87
2022-12-25T07:19:28.092Z,10.83
2022-12-25T07:21:30.758Z,10.81
2022-12-25T07:23:33.859Z,10.82
2022-12-25T07:25:37.575Z,10.82
2022-12-25T07:27:40.414Z,10.82
2022-12-25T07:29:43.172Z,10.83
2022-12-25T07:31:46.537Z,10.86
2022-12-25T07:33:51.936Z,10.85
2022-12-25T07:35:54.629Z,10.85
2022-12-25T07:37:57.278Z,10.88
2022-12-25T07:40:00.071Z,10.89
2022-12-25T07:42:03.096Z,10.86
2022-12-25T07:44:06.049Z,10.81
2022-12-25T07:46:09.137Z,10.79
2022-12-25T07:48:16.461Z,10.75
2022-12-25T07:50:19.712Z,10.75
2022-12-25T07:52:22.427Z,10.79
2022-12-25T07:54:25.205Z,10.83
2022-12-25T07:56:27.976Z,10.81
2022-12-25T07:58:31.127Z,10.75
2022-12-25T08:00:33.784Z,10.68
2022-12-25T08:02:36.961Z,10.64
2022-12-25T08:04:41.025Z,10.58
2022-12-25T08:06:43.703Z,10.50
2022-12-25T08:08:46.410Z,10.41
2022-12-25T08:10:49.052Z,10.35
2022-12-25T08:12:54.508Z,10.30
2022-12-25T08:14:57.413Z,10.26
2022-12-25T08:17:00.161Z,10.20
2022-12-25T08:19:02.967Z,10.16
2022-12-25T08:21:07.920Z,10.10
2022-12-25T08:23:10.640Z,10.08
2022-12-25T08:25:13.360Z,10.07
2022-12-25T08:27:16.204Z,10.04
2022-12-25T08:29:18.915Z,10.02
2022-12-25T08:31:24.051Z,10.00
2022-12-25T08:33:26.878Z,10.02
2022-12-25T08:35:29.767Z,10.08
2022-12-25T08:37:32.559Z,10.15
2022-12-25T08:39:35.261Z,10.24
2022-12-25T08:41:37.956Z,10.32
2022-12-25T08:43:41.109Z,10.38
2022-12-25T08:45:46.659Z,10.43
2022-12-25T08:47:54.406Z,10.47
2022-12-25T08:49:57.139Z,10.49
2022-12-25T08:52:00.046Z,10.48
2022-12-25T08:54:02.898Z,10.50
2022-12-25T08:56:06.564Z,10.51
2022-12-25T08:58:09.375Z,10.56
2022-12-25T09:00:13.858Z,10.62
2022-12-25T09:02:17.676Z,10.74
2022-12-25T09:04:20.440Z,10.84
2022-12-25T09:06:23.076Z,10.93
2022-12-25T09:08:25.823Z,10.98
2022-12-25T09:10:28.591Z,10.97
2022-12-25T09:12:31.283Z,10.89
2022-12-25T09:14:33.966Z,10.83
2022-12-25T09:16:36.689Z,10.79
2022-12-25T09:18:39.931Z,10.74
2022-12-25T09:20:42.596Z,10.69
2022-12-25T09:22:45.184Z,10.69
2022-12-25T09:24:47.815Z,10.73
2022-12-25T09:26:51.644Z,10.75
2022-12-25T09:28:54.298Z,10.79
2022-12-25T09:30:57.405Z,10.77
2022-12-25T09:33:00.127Z,10.74
2022-12-25T09:35:02.831Z,10.72
2022-12-25T09:37:05.540Z,10.70
2022-12-25T09:39:08.180Z,10.69
2022-12-25T09:41:16.430Z,10.69
2022-12-25T09:43:20.915Z,10.70
2022-12-25T09:45:27.784Z,10.72
2022-12-25T09:47:33.365Z,10.73
2022-12-25T09:49:41.536Z,10.79
2022-12-25T09:51:47.979Z,10.85
2022-12-25T09:53:59.464Z,10.92
2022-12-25T09:56:09.996Z,10.90
2022-12-25T09:58:13.309Z,10.94
2022-12-25T10:00:18.920Z,10.99
2022-12-25T10:02:42.472Z,11.05
2022-12-25T10:05:01.045Z,11.12
2022-12-25T10:07:13.884Z,11.22
2022-12-25T10:09:32.849Z,11.28
2022-12-25T10:11:48.848Z,11.33
2022-12-25T10:14:12.069Z,11.41
2022-12-25T10:16:26.162Z,11.54
2022-12-25T10:18:47.384Z,11.69
2022-12-25T10:20:52.596Z,11.75
2022-12-25T10:22:59.547Z,11.74
2022-12-25T10:25:03.645Z,11.80
2022-12-25T10:27:14.047Z,11.89
2022-12-25T10:29:18.230Z,11.97
2022-12-25T10:31:22.971Z,12.06
2022-12-25T10:33:26.795Z,12.07
2022-12-25T10:35:30.212Z,12.06
2022-12-25T10:37:32.913Z,12.10
2022-12-25T10:39:38.485Z,12.17
2022-12-25T10:42:03.777Z,12.26
2022-12-25T10:44:14.049Z,12.35
2022-12-25T10:46:17.981Z,12.39
2022-12-25T10:48:25.033Z,12.43
2022-12-25T10:50:28.134Z,12.48
2022-12-25T10:52:30.996Z,12.50
2022-12-25T10:54:36.111Z,12.49
2022-12-25T10:56:38.844Z,12.44
2022-12-25T10:58:41.592Z,12.37
2022-12-25T11:00:52.627Z,12.35
2022-12-25T11:02:55.857Z,12.35
2022-12-25T11:05:04.161Z,12.37
2022-12-25T11:07:14.229Z,12.41
2022-12-25T11:09:17.129Z,12.44
2022-12-25T11:11:20.239Z,12.47
2022-12-25T11:13:25.492Z,12.48
2022-12-25T11:15:46.860Z,12.43
2022-12-25T11:17:49.694Z,12.36
2022-12-25T11:19:54.256Z,12.33
2022-12-25T11:21:59.610Z,12.29
2022-12-25T11:24:04.020Z,12.26
2022-12-25T11:26:09.978Z,12.28
2022-12-25T11:28:12.718Z,12.33
2022-12-25T11:30:16.161Z,12.34
2022-12-25T11:32:27.122Z,12.35
2022-12-25T11:34:33.450Z,12.34
2022-12-25T11:36:43.467Z,12.34
2022-12-25T11:38:46.264Z,12.33
2022-12-25T11:40:51.614Z,12.36
2022-12-25T11:43:04.043Z,12.41
2022-12-25T11:45:16.060Z,12.46
2022-12-25T11:47:23.798Z,12.49
2022-12-25T11:49:27.548Z,12.54
2022-12-25T11:51:35.054Z,12.56
2022-12-25T11:53:43.941Z,12.61
2022-12-25T11:55:49.863Z,12.63
2022-12-25T11:57:58.353Z,12.68
2022-12-25T12:00:04.325Z,12.73
2022-12-25T12:02:23.562Z,12.75
2022-12-25T12:04:35.149Z,12.77
2022-12-25T12:06:51.527Z,12.82
2022-12-25T12:09:01.633Z,12.88
2022-12-25T12:11:16.203Z,12.92
2022-12-25T12:13:36.257Z,12.98
2022-12-25T12:15:43.080Z,13.03
2022-12-25T12:17:45.745Z,13.08
2022-12-25T12:19:48.457Z,13.12
2022-12-25T12:21:52.509Z,13.14
2022-12-25T12:24:04.243Z,13.14
2022-12-25T12:26:07.160Z,13.20
2022-12-25T12:28:19.532Z,13.24
2022-12-25T12:30:26.335Z,13.27
2022-12-25T12:32:36.594Z,13.30
2022-12-25T12:34:45.347Z,13.34
2022-12-25T12:36:49.493Z,13.37
2022-12-25T12:38:53.114Z,13.41
2022-12-25T12:40:58.887Z,13.42
2022-12-25T12:43:02.561Z,13.44
2022-12-25T12:45:14.229Z,13.47
2022-12-25T12:47:30.268Z,13.44
2022-12-25T12:49:33.013Z,13.45
2022-12-25T12:51:37.251Z,13.48
2022-12-25T12:53:41.063Z,13.49
2022-12-25T12:55:43.897Z,13.52
2022-12-25T12:57:57.007Z,13.55
2022-12-25T13:00:04.791Z,13.60
2022-12-25T13:02:38.818Z,13.61
2022-12-25T13:04:51.352Z,13.56
2022-12-25T13:07:02.831Z,13.48
2022-12-25T13:09:17.176Z,13.43
2022-12-25T13:11:22.112Z,13.40
2022-12-25T13:13:36.107Z,13.35
2022-12-25T13:15:39.283Z,13.32
2022-12-25T13:17:44.891Z,13.31
2022-12-25T13:19:51.933Z,13.31
2022-12-25T13:21:56.624Z,13.29
2022-12-25T13:24:01.440Z,13.25
2022-12-25T13:26:10.950Z,13.19
2022-12-25T13:28:14.823Z,13.10
2022-12-25T13:30:20.919Z,13.06
2022-12-25T13:32:26.552Z,13.02
2022-12-25T13:34:31.847Z,12.95
2022-12-25T13:36:37.838Z,12.89
2022-12-25T13:38:44.738Z,12.83
2022-12-25T13:40:52.849Z,12.80
2022-12-25T13:42:58.587Z,12.74
2022-12-25T13:45:03.797Z,12.70
2022-12-25T13:47:17.743Z,12.68
2022-12-25T13:49:22.634Z,12.65
2022-12-25T13:51:25.483Z,12.54
2022-12-25T13:53:28.367Z,12.47
2022-12-25T13:55:32.602Z,12.43
2022-12-25T13:57:38.975Z,12.39
2022-12-25T13:59:44.337Z,12.32
2022-12-25T14:01:48.275Z,12.28
2022-12-25T14:03:51.055Z,12.27
2022-12-25T14:05:58.062Z,12.23
2022-12-25T14:08:03.455Z,12.18
2022-12-25T14:10:11.713Z,12.12
2022-12-25T14:12:19.304Z,12.05
2022-12-25T14:14:24.840Z,12.00
2022-12-25T14:16:29.231Z,11.91
2022-12-25T14:18:32.690Z,11.88
2022-12-25T14:20:39.395Z,11.85
2022-12-25T14:22:48.204Z,11.82
2022-12-25T14:24:51.305Z,11.77
2022-12-25T14:26:59.814Z,11.74
2022-12-25T14:29:17.583Z,11.72
2022-12-25T14:31:22.988Z,11.64
2022-12-25T14:33:26.731Z,11.60
2022-12-25T14:35:29.688Z,11.54
2022-12-25T14:37:33.374Z,11.52
2022-12-25T14:39:37.821Z,11.48
2022-12-25T14:41:40.533Z,11.46
2022-12-25T14:43:51.935Z,11.39
2022-12-25T14:45:56.688Z,11.35
2022-12-25T14:48:00.911Z,11.30
2022-12-25T14:50:14.689Z,11.23
2022-12-25T14:52:21.948Z,11.20
2022-12-25T14:54:26.043Z,11.14
2022-12-25T14:56:30.795Z,11.09
2022-12-25T14:58:40.610Z,11.06
2022-12-25T15:00:43.379Z,11.02
2022-12-25T15:02:47.659Z,10.98
2022-12-25T15:04:50.539Z,10.96
2022-12-25T15:06:54.865Z,10.92
2022-12-25T15:08:59.925Z,10.88
2022-12-25T15:11:03.606Z,10.87
2022-12-25T15:13:07.154Z,10.85
2022-12-25T15:15:10.751Z,10.83
2022-12-25T15:17:22.659Z,10.82
2022-12-25T15:19:34.818Z,10.82
2022-12-25T15:21:40.908Z,10.78
2022-12-25T15:23:43.668Z,10.76
2022-12-25T15:25:46.538Z,10.75
2022-12-25T15:27:49.295Z,10.72
2022-12-25T15:32:18.438Z,10.64
2022-12-25T15:34:21.169Z,10.61
2022-12-25T15:36:24.608Z,10.59
2022-12-25T15:38:27.311Z,10.55
2022-12-25T15:40:29.960Z,10.53
2022-12-25T15:42:33.219Z,10.51
2022-12-25T15:44:36.018Z,10.49
2022-12-25T15:46:39.148Z,10.45
2022-12-25T15:48:41.988Z,10.44
2022-12-25T15:50:44.778Z,10.41
2022-12-25T15:52:48.035Z,10.39
2022-12-25T15:54:50.805Z,10.35
2022-12-25T15:56:56.132Z,10.31
2022-12-25T15:58:58.799Z,10.28
2022-12-25T16:01:01.570Z,10.29
2022-12-25T16:03:04.535Z,10.30
2022-12-25T16:05:10.712Z,10.29
2022-12-25T16:07:16.055Z,10.27
2022-12-25T16:09:19.734Z,10.29
2022-12-25T16:11:22.979Z,10.28
2022-12-25T16:13:25.813Z,10.29
2022-12-25T16:15:28.512Z,10.29
2022-12-25T16:17:31.353Z,10.30
2022-12-25T16:19:36.720Z,10.30
2022-12-25T16:21:42.173Z,10.28
2022-12-25T16:23:45.250Z,10.25
2022-12-25T16:25:47.881Z,10.24
2022-12-25T16:27:50.590Z,10.21
2022-12-25T16:29:53.232Z,10.24
2022-12-25T16:31:55.831Z,10.23
2022-12-25T16:33:58.883Z,10.22
2022-12-25T16:36:01.679Z,10.23
2022-12-25T16:38:04.653Z,10.17
2022-12-25T16:40:09.384Z,10.11
2022-12-25T16:42:12.158Z,10.07
2022-12-25T16:44:17.682Z,10.04
2022-12-25T16:46:21.565Z,9.98
2022-12-25T16:48:24.431Z,9.94
2022-12-25T16:50:27.088Z,9.90
2022-12-25T16:52:30.317Z,9.89
2022-12-25T16:54:32.923Z,9.88
2022-12-25T16:56:35.758Z,9.86
2022-12-25T16:58:38.585Z,9.86
2022-12-25T17:00:47.335Z,9.86
2022-12-25T17:02:52.176Z,9.85
2022-12-25T17:04:55.199Z,9.83
2022-12-25T17:06:57.980Z,9.80
2022-12-25T17:09:01.346Z,9.74
2022-12-25T17:11:05.208Z,9.69
2022-12-25T17:13:07.949Z,9.67
2022-12-25T17:15:11.942Z,9.64
2022-12-25T17:17:14.609Z,9.63
2022-12-25T17:19:19.430Z,9.60
2022-12-25T17:21:22.393Z,9.59
2022-12-25T17:23:25.111Z,9.61
2022-12-25T17:25:28.051Z,9.63
2022-12-25T17:27:30.928Z,9.64
2022-12-25T17:29:33.721Z,9.64
2022-12-25T17:31:36.827Z,9.65
2022-12-25T17:33:41.060Z,9.66
2022-12-25T17:35:43.800Z,9.66
2022-12-25T17:37:46.486Z,9.68
2022-12-25T17:39:49.150Z,9.68
2022-12-25T17:41:51.862Z,9.68
2022-12-25T17:43:54.646Z,9.66
2022-12-25T17:46:02.550Z,9.63
2022-12-25T17:48:05.440Z,9.61
2022-12-25T17:50:09.002Z,9.58
2022-12-25T17:52:11.792Z,9.55
2022-12-25T17:54:14.602Z,9.51
2022-12-25T17:56:18.171Z,9.48
2022-12-25T17:58:21.026Z,9.46
2022-12-25T18:00:23.914Z,9.44
2022-12-25T18:02:26.877Z,9.44
2022-12-25T18:04:29.681Z,9.41
2022-12-25T18:06:34.837Z,9.39
2022-12-25T18:08:39.820Z,9.38
2022-12-25T18:10:43.683Z,9.35
2022-12-25T18:12:46.455Z,9.36
2022-12-25T18:14:49.405Z,9.35
2022-12-25T18:16:52.224Z,9.35
2022-12-25T18:18:55.092Z,9.34
2022-12-25T18:20:57.987Z,9.33
2022-12-25T18:23:00.953Z,9.32
2022-12-25T18:25:04.814Z,9.30
2022-12-25T18:27:07.722Z,9.31
2022-12-25T18:29:10.441Z,9.31
2022-12-25T18:31:16.270Z,9.30
2022-12-25T18:33:19.062Z,9.27
2022-12-25T18:35:21.845Z,9.24
2022-12-25T18:37:25.085Z,9.22
2022-12-25T18:39:29.774Z,9.22
2022-12-25T18:41:32.526Z,9.22
2022-12-25T18:43:53.428Z,9.20
2022-12-25T18:45:58.626Z,9.19
2022-12-25T18:48:01.564Z,9.17
2022-12-25T18:50:06.948Z,9.15
2022-12-25T18:52:47.576Z,9.12
2022-12-25T18:54:32.585Z,9.11
2022-12-25T18:56:35.386Z,9.10
2022-12-25T18:58:38.730Z,9.07
2022-12-25T19:00:42.520Z,9.05
2022-12-25T19:02:45.944Z,9.05
2022-12-25T19:04:48.808Z,9.02
2022-12-25T19:06:51.633Z,9.01
2022-12-25T19:08:54.850Z,8.98
2022-12-25T19:10:57.596Z,8.95
2022-12-25T19:13:00.630Z,8.90
2022-12-25T19:15:04.070Z,8.88
2022-12-25T19:17:10.317Z,8.87
2022-12-25T19:19:13.489Z,8.84
2022-12-25T19:21:16.285Z,8.84
2022-12-25T19:23:19.370Z,8.85
2022-12-25T19:25:22.275Z,8.86
2022-12-25T19:27:25.483Z,8.87
2022-12-25T19:29:28.548Z,8.88
2022-12-25T19:31:31.565Z,8.89
2022-12-25T19:33:37.230Z,8.92
2022-12-25T19:35:41.293Z,8.93
2022-12-25T19:37:45.146Z,8.93
2022-12-25T19:39:48.594Z,8.94
2022-12-25T19:41:51.296Z,8.93
2022-12-25T19:43:54.223Z,8.93
2022-12-25T19:45:57.394Z,8.93
2022-12-25T19:48:00.248Z,8.95
2022-12-25T19:50:03.858Z,8.96
2022-12-25T19:52:07.460Z,8.95
2022-12-25T19:54:13.521Z,8.91
2022-12-25T19:56:17.506Z,8.91
2022-12-25T19:58:21.104Z,8.91
2022-12-25T20:00:24.652Z,8.93
2022-12-25T20:02:27.496Z,8.94
2022-12-25T20:04:30.485Z,8.94
2022-12-25T20:06:34.522Z,8.94
2022-12-25T20:08:37.243Z,8.93
2022-12-25T20:10:43.288Z,8.92
2022-12-25T20:12:46.197Z,8.94
2022-12-25T20:14:49.434Z,8.90
2022-12-25T20:16:55.356Z,8.85
2022-12-25T20:18:59.003Z,8.81
2022-12-25T20:21:03.704Z,8.81
2022-12-25T20:23:06.962Z,8.83
2022-12-25T20:25:10.212Z,8.87
2022-12-25T20:27:15.774Z,8.92
2022-12-25T20:29:18.993Z,8.97
2022-12-25T20:31:23.949Z,9.00
2022-12-25T20:33:26.679Z,9.03
2022-12-25T20:35:32.328Z,9.06
2022-12-25T20:37:35.009Z,9.10
2022-12-25T20:39:38.495Z,9.12
2022-12-25T20:41:41.398Z,9.13
2022-12-25T20:43:45.741Z,9.11
2022-12-25T20:45:50.633Z,9.11
2022-12-25T20:47:53.583Z,9.16
2022-12-25T20:49:56.554Z,9.15
2022-12-25T20:52:04.921Z,9.10
2022-12-25T20:54:09.573Z,9.11
2022-12-25T20:56:14.416Z,9.11
2022-12-25T20:58:17.654Z,9.13
2022-12-25T21:00:20.585Z,9.10
2022-12-25T21:02:33.899Z,9.08
2022-12-25T21:04:38.918Z,9.08
2022-12-25T21:06:41.816Z,9.10
2022-12-25T21:08:45.332Z,9.09
2022-12-25T21:10:50.594Z,9.07
2022-12-25T21:12:53.823Z,9.05
2022-12-25T21:14:56.656Z,9.03
2022-12-25T21:16:59.485Z,8.98
2022-12-25T21:19:02.259Z,8.92
2022-12-25T21:21:06.694Z,8.86
2022-12-25T21:23:09.398Z,8.80
2022-12-25T21:25:12.046Z,8.75
2022-12-25T21:27:14.750Z,8.69
2022-12-25T21:29:18.953Z,8.67
2022-12-25T21:31:22.987Z,8.69
2022-12-25T21:33:25.991Z,8.71
2022-12-25T21:35:28.684Z,8.69
2022-12-25T21:37:32.038Z,8.71
2022-12-25T21:39:34.785Z,8.72
2022-12-25T21:41:38.651Z,8.73
2022-12-25T21:43:41.535Z,8.72
2022-12-25T21:45:44.327Z,8.71
2022-12-25T21:48:00.188Z,8.71
2022-12-25T21:50:07.010Z,8.70
2022-12-25T21:52:09.823Z,8.70
2022-12-25T21:54:14.160Z,8.69
2022-12-25T21:56:17.553Z,8.68
2022-12-25T21:58:20.335Z,8.69
2022-12-25T22:00:23.640Z,8.69
2022-12-25T22:02:29.518Z,8.68
2022-12-25T22:04:34.053Z,8.70
2022-12-25T22:06:36.799Z,8.65
2022-12-25T22:08:39.557Z,8.62
2022-12-25T22:10:42.208Z,8.61
2022-12-25T22:12:44.918Z,8.60
2022-12-25T22:14:52.804Z,8.57
2022-12-25T22:16:56.323Z,8.56
2022-12-25T22:18:58.965Z,8.53
2022-12-25T22:21:01.635Z,8.51
2022-12-25T22:23:04.765Z,8.48
2022-12-25T22:25:08.533Z,8.44
2022-12-25T22:27:11.417Z,8.41
2022-12-25T22:29:14.037Z,8.40
2022-12-25T22:31:16.781Z,8.42
2022-12-25T22:33:19.502Z,8.43
2022-12-25T22:35:22.906Z,8.43
2022-12-25T22:37:25.659Z,8.43
2022-12-25T22:39:31.710Z,8.44
2022-12-25T22:41:34.411Z,8.47
2022-12-25T22:44:15.259Z,8.48
2022-12-25T22:46:00.742Z,8.47
2022-12-25T22:48:03.658Z,8.48
2022-12-25T22:50:07.728Z,8.50
2022-12-25T22:52:10.413Z,8.50
2022-12-25T22:54:14.066Z,8.49
2022-12-25T22:56:16.831Z,8.48
2022-12-25T22:58:19.531Z,8.47
2022-12-25T23:00:22.232Z,8.44
2022-12-25T23:02:25.175Z,8.37
2022-12-25T23:04:29.235Z,8.31
2022-12-25T23:06:32.597Z,8.23
2022-12-25T23:08:35.270Z,8.09
2022-12-25T23:10:37.928Z,8.01
2022-12-25T23:12:40.598Z,7.95
2022-12-25T23:14:43.291Z,7.91
2022-12-25T23:16:46.060Z,7.88
2022-12-25T23:18:48.773Z,7.86
2022-12-25T23:20:51.430Z,7.83
2022-12-25T23:22:54.052Z,7.81
2022-12-25T23:24:57.365Z,7.83
2022-12-25T23:27:00.109Z,7.81
2022-12-25T23:29:02.939Z,7.79
2022-12-25T23:31:05.696Z,7.79
2022-12-25T23:33:08.408Z,7.79
2022-12-25T23:35:11.972Z,7.82
2022-12-25T23:37:14.818Z,7.80
2022-12-25T23:39:17.493Z,7.77
2022-12-25T23:41:20.284Z,7.76
2022-12-25T23:43:22.928Z,7.77
2022-12-25T23:45:25.571Z,7.78
2022-12-25T23:47:28.386Z,7.80
2022-12-25T23:49:31.069Z,7.80
2022-12-25T23:51:35.019Z,7.81
2022-12-25T23:53:37.703Z,7.83
2022-12-25T23:55:40.312Z,7.87
2022-12-25T23:57:42.985Z,7.83
2022-12-25T23:59:45.892Z,7.80
